Alto Garcas, Brazil
Current Conditions -  °F | °C
As of 6:00 PM on Sunday 19 Oct 2014 (Local Time) from SBBW Reporting Station
Haze Haze  
Wind Chill: 91°   Ceiling: Unl
Heat Index: 91°   Visibility: 3mi
Dew Point: 59°   Wind: 5mph
Humidity: 34%   Direction: 310°NW
Pressure: 29.8"   Gusts: NA
Location:  16.94°S, 53.53°W
Report Text: SBBW 192200Z 31004KT 5000 HZ FEW025 FEW030TCU 33/15 Q1009
Loading
Personal Weather Stations






























Interactive Weather Map
Tropical Storm Tracking
New forecast layout! Learn more

10-Day Weather Forecast

Advertisements
Track Severe Weather on mobile